createdAt,value
2023-03-03T00:01:58.530Z,62.11
2023-03-03T00:04:25.292Z,62.03
2023-03-03T00:06:52.119Z,61.78
2023-03-03T00:09:18.870Z,61.72
2023-03-03T00:11:50.316Z,62.10
2023-03-03T00:14:37.369Z,62.30
2023-03-03T00:17:21.490Z,61.88
2023-03-03T00:19:49.402Z,62.12
2023-03-03T00:22:36.269Z,62.22
2023-03-03T00:25:28.530Z,62.01
2023-03-03T00:27:55.793Z,62.34
2023-03-03T00:30:28.057Z,62.01
2023-03-03T00:32:55.762Z,62.74
2023-03-03T00:35:30.095Z,62.25
2023-03-03T00:38:10.600Z,62.69
2023-03-03T00:40:39.688Z,62.71
2023-03-03T00:43:25.214Z,62.16
2023-03-03T00:45:56.937Z,62.86
2023-03-03T00:48:37.581Z,61.92
2023-03-03T00:51:28.058Z,62.36
2023-03-03T00:53:56.081Z,63.03
2023-03-03T00:56:23.233Z,62.71
2023-03-03T00:58:51.153Z,62.78
2023-03-03T01:01:19.038Z,62.82
2023-03-03T01:03:45.939Z,62.70
2023-03-03T01:06:14.136Z,62.67
2023-03-03T01:08:40.916Z,62.86
2023-03-03T01:11:16.422Z,62.23
2023-03-03T01:13:47.632Z,62.39
2023-03-03T01:16:14.472Z,62.57
2023-03-03T01:18:42.066Z,62.37
2023-03-03T01:21:10.638Z,62.50
2023-03-03T01:23:37.774Z,62.16
2023-03-03T01:26:06.868Z,62.68
2023-03-03T01:28:34.519Z,62.63
2023-03-03T01:31:06.193Z,62.80
2023-03-03T01:33:35.107Z,62.84
2023-03-03T01:36:02.602Z,63.03
2023-03-03T01:38:29.887Z,62.51
2023-03-03T01:40:59.798Z,63.02
2023-03-03T01:43:28.680Z,63.05
2023-03-03T01:45:58.442Z,62.60
2023-03-03T01:48:30.368Z,62.50
2023-03-03T01:51:19.311Z,62.93
2023-03-03T01:53:55.099Z,62.62
2023-03-03T01:56:22.329Z,62.95
2023-03-03T01:58:59.815Z,63.26
2023-03-03T02:01:29.265Z,62.59
2023-03-03T02:03:56.121Z,62.88
2023-03-03T02:06:27.559Z,62.89
2023-03-03T02:09:02.356Z,62.96
2023-03-03T02:11:32.725Z,62.82
2023-03-03T02:13:59.510Z,62.96
2023-03-03T02:16:26.687Z,63.06
2023-03-03T02:18:53.531Z,63.11
2023-03-03T02:21:27.657Z,62.83
2023-03-03T02:24:16.657Z,62.76
2023-03-03T02:26:44.669Z,62.96
2023-03-03T02:29:11.579Z,63.03
2023-03-03T02:31:38.639Z,62.85
2023-03-03T02:34:06.100Z,63.22
2023-03-03T02:36:37.463Z,62.70
2023-03-03T02:39:27.174Z,63.03
2023-03-03T02:42:17.416Z,63.11
2023-03-03T02:44:44.378Z,62.55
2023-03-03T02:47:11.241Z,63.13
2023-03-03T02:49:38.688Z,62.62
2023-03-03T02:52:12.028Z,62.53
2023-03-03T02:54:38.900Z,62.69
2023-03-03T02:57:07.143Z,62.92
2023-03-03T02:59:33.928Z,63.02
2023-03-03T03:02:00.674Z,62.82
2023-03-03T03:04:28.332Z,63.09
2023-03-03T03:06:56.014Z,62.97
2023-03-03T03:09:25.058Z,63.10
2023-03-03T03:11:52.565Z,62.48
2023-03-03T03:14:19.546Z,62.82
2023-03-03T03:16:46.365Z,62.45
2023-03-03T03:19:13.512Z,62.93
2023-03-03T03:21:40.322Z,62.45
2023-03-03T03:24:07.347Z,62.80
2023-03-03T03:26:34.178Z,63.08
2023-03-03T03:29:01.023Z,62.87
2023-03-03T03:31:27.839Z,62.95
2023-03-03T03:33:54.629Z,62.79
2023-03-03T03:36:21.477Z,62.88
2023-03-03T03:38:48.367Z,63.06
2023-03-03T03:41:15.185Z,62.89
2023-03-03T03:43:42.050Z,62.94
2023-03-03T03:46:09.055Z,62.72
2023-03-03T03:48:36.281Z,62.78
2023-03-03T03:51:03.815Z,63.10
2023-03-03T03:53:33.428Z,62.88
2023-03-03T03:56:00.180Z,62.85
2023-03-03T03:58:27.007Z,62.52
2023-03-03T04:00:53.803Z,62.71
2023-03-03T04:03:20.764Z,62.80
2023-03-03T04:05:47.623Z,62.70
2023-03-03T04:08:14.412Z,62.67
2023-03-03T04:10:41.211Z,62.86
2023-03-03T04:13:07.970Z,63.00
2023-03-03T04:15:34.811Z,62.63
2023-03-03T04:18:01.845Z,62.40
2023-03-03T04:20:28.876Z,62.49
2023-03-03T04:22:56.667Z,63.02
2023-03-03T04:25:23.757Z,63.07
2023-03-03T04:27:52.008Z,63.06
2023-03-03T04:30:19.050Z,62.98
2023-03-03T04:32:45.818Z,62.82
2023-03-03T04:35:12.836Z,62.89
2023-03-03T04:37:39.874Z,62.60
2023-03-03T04:40:08.993Z,62.64
2023-03-03T04:42:35.926Z,63.01
2023-03-03T04:45:04.021Z,62.85
2023-03-03T04:47:32.760Z,62.91
2023-03-03T04:50:00.913Z,62.52
2023-03-03T04:52:28.080Z,63.18
2023-03-03T04:54:54.852Z,62.83
2023-03-03T04:57:21.638Z,62.89
2023-03-03T04:59:48.721Z,62.89
2023-03-03T05:02:15.899Z,63.17
2023-03-03T05:04:42.781Z,63.03
2023-03-03T05:07:09.783Z,62.79
2023-03-03T05:09:36.792Z,63.20
2023-03-03T05:12:03.744Z,62.64
2023-03-03T05:14:31.420Z,62.70
2023-03-03T05:16:58.250Z,62.65
2023-03-03T05:19:25.483Z,62.88
2023-03-03T05:21:52.262Z,62.45
2023-03-03T05:24:19.084Z,62.34
2023-03-03T05:26:45.889Z,63.02
2023-03-03T05:29:12.678Z,62.55
2023-03-03T05:31:39.540Z,62.64
2023-03-03T05:34:06.347Z,62.44
2023-03-03T05:36:33.116Z,62.60
2023-03-03T05:38:59.905Z,62.56
2023-03-03T05:41:26.715Z,63.00
2023-03-03T05:43:53.624Z,62.74
2023-03-03T05:46:20.430Z,62.67
2023-03-03T05:48:47.407Z,62.73
2023-03-03T05:51:14.171Z,62.62
2023-03-03T05:53:41.097Z,62.62
2023-03-03T05:56:08.165Z,62.61
2023-03-03T05:58:34.950Z,62.48
2023-03-03T06:01:01.802Z,62.33
2023-03-03T06:03:28.916Z,62.87
2023-03-03T06:05:55.730Z,62.38
2023-03-03T06:08:23.868Z,62.67
2023-03-03T06:10:50.709Z,62.92
2023-03-03T06:13:17.598Z,62.78
2023-03-03T06:15:44.532Z,62.41
2023-03-03T06:18:11.390Z,62.59
2023-03-03T06:20:38.816Z,61.93
2023-03-03T06:23:06.020Z,62.20
2023-03-03T06:25:35.568Z,62.38
2023-03-03T06:28:03.849Z,62.05
2023-03-03T06:30:30.714Z,62.08
2023-03-03T06:32:57.655Z,62.72
2023-03-03T06:35:24.619Z,62.25
2023-03-03T06:37:51.548Z,62.09
2023-03-03T06:40:18.558Z,62.10
2023-03-03T06:42:45.462Z,62.35
2023-03-03T06:45:12.707Z,62.26
2023-03-03T06:47:39.529Z,61.97
2023-03-03T06:50:07.965Z,62.32
2023-03-03T06:52:34.777Z,62.08
2023-03-03T06:55:11.766Z,61.89
2023-03-03T06:57:38.625Z,62.37
2023-03-03T07:00:26.255Z,62.11
2023-03-03T07:03:08.792Z,62.09
2023-03-03T07:05:35.600Z,62.10
2023-03-03T07:08:02.383Z,62.40
2023-03-03T07:10:30.920Z,62.61
2023-03-03T07:13:16.013Z,62.11
2023-03-03T07:15:42.810Z,62.74
2023-03-03T07:18:52.519Z,62.26
2023-03-03T07:21:37.810Z,62.20
2023-03-03T07:24:30.062Z,62.44
2023-03-03T07:27:26.964Z,62.60
2023-03-03T07:30:01.694Z,62.41
2023-03-03T07:32:49.081Z,62.66
2023-03-03T07:35:40.757Z,62.52
2023-03-03T07:38:35.118Z,62.68
2023-03-03T07:41:20.697Z,62.26
2023-03-03T07:43:55.112Z,62.69
2023-03-03T07:46:42.624Z,62.59
2023-03-03T07:49:38.610Z,62.70
2023-03-03T07:52:40.437Z,62.58
2023-03-03T07:55:26.335Z,62.44
2023-03-03T07:57:59.175Z,62.11
2023-03-03T08:00:29.095Z,62.75
2023-03-03T08:03:02.874Z,62.43
2023-03-03T08:05:42.053Z,62.40
2023-03-03T08:08:33.820Z,62.40
2023-03-03T08:11:02.698Z,62.36
2023-03-03T08:13:34.340Z,62.58
2023-03-03T08:16:18.682Z,62.54
2023-03-03T08:18:53.215Z,62.40
2023-03-03T08:21:25.288Z,62.09
2023-03-03T08:23:53.697Z,62.14
2023-03-03T08:26:22.184Z,62.16
2023-03-03T08:28:49.133Z,62.06
2023-03-03T08:31:28.063Z,62.01
2023-03-03T08:34:01.848Z,61.83
2023-03-03T08:36:28.595Z,61.80
2023-03-03T08:38:55.518Z,61.85
2023-03-03T08:41:22.284Z,61.84
2023-03-03T08:43:49.137Z,61.89
2023-03-03T08:46:16.224Z,62.11
2023-03-03T08:48:43.039Z,62.08
2023-03-03T08:51:10.003Z,62.02
2023-03-03T08:53:38.134Z,61.64
2023-03-03T08:56:06.818Z,61.97
2023-03-03T08:58:35.851Z,61.56
2023-03-03T09:01:04.135Z,61.32
2023-03-03T09:03:31.286Z,61.62
2023-03-03T09:05:58.077Z,61.62
2023-03-03T09:08:24.842Z,61.55
2023-03-03T09:10:51.602Z,61.75
2023-03-03T09:13:19.767Z,61.91
2023-03-03T09:15:48.844Z,61.87
2023-03-03T09:18:22.353Z,61.71
2023-03-03T09:20:54.455Z,61.60
2023-03-03T09:23:35.562Z,61.89
2023-03-03T09:26:11.546Z,61.51
2023-03-03T09:28:38.678Z,61.77
2023-03-03T09:31:25.425Z,61.52
2023-03-03T09:33:55.120Z,61.43
2023-03-03T09:36:30.270Z,61.56
2023-03-03T09:38:58.222Z,61.53
2023-03-03T09:42:02.870Z,61.51
2023-03-03T09:44:56.733Z,61.57
2023-03-03T09:47:53.237Z,61.77
2023-03-03T09:50:48.524Z,61.49
2023-03-03T09:53:58.613Z,61.51
2023-03-03T09:56:34.090Z,61.45
2023-03-03T09:59:45.398Z,61.19
2023-03-03T10:02:39.320Z,61.32
2023-03-03T10:05:43.392Z,61.17
2023-03-03T10:08:18.964Z,61.31
2023-03-03T10:11:17.519Z,61.24
2023-03-03T10:14:04.968Z,61.23
2023-03-03T10:16:58.318Z,60.93
2023-03-03T10:19:47.742Z,61.13
2023-03-03T10:22:41.660Z,61.10
2023-03-03T10:25:36.598Z,60.72
2023-03-03T10:28:30.538Z,61.25
2023-03-03T10:31:28.835Z,61.08
2023-03-03T10:34:22.029Z,61.07
2023-03-03T10:36:59.520Z,60.60
2023-03-03T10:39:39.742Z,60.61
2023-03-03T10:42:24.885Z,60.39
2023-03-03T10:45:35.809Z,60.42
2023-03-03T10:48:41.491Z,60.28
2023-03-03T10:51:45.953Z,60.38
2023-03-03T10:54:45.601Z,60.27
2023-03-03T10:57:20.269Z,60.38
2023-03-03T11:00:17.600Z,60.00
2023-03-03T11:03:23.040Z,60.18
2023-03-03T11:06:02.509Z,59.94
2023-03-03T11:08:43.534Z,59.88
2023-03-03T11:11:27.209Z,60.15
2023-03-03T11:14:12.803Z,60.01
2023-03-03T11:17:00.943Z,60.01
2023-03-03T11:20:28.116Z,60.23
2023-03-03T11:23:32.216Z,59.74
2023-03-03T11:26:12.257Z,59.86
2023-03-03T11:29:02.964Z,59.29
2023-03-03T11:31:56.138Z,59.67
2023-03-03T11:34:50.496Z,59.49
2023-03-03T11:37:54.177Z,59.63
2023-03-03T11:40:27.452Z,59.23
2023-03-03T11:43:35.407Z,59.60
2023-03-03T11:46:12.100Z,59.34
2023-03-03T11:49:03.826Z,59.48
2023-03-03T11:52:11.742Z,59.22
2023-03-03T11:55:08.533Z,58.89
2023-03-03T11:58:07.110Z,59.04
2023-03-03T12:00:52.653Z,59.04
2023-03-03T12:03:40.742Z,58.88
2023-03-03T12:06:25.111Z,58.70
2023-03-03T12:09:40.078Z,58.83
2023-03-03T12:12:16.236Z,59.14
2023-03-03T12:15:24.287Z,58.84
2023-03-03T12:18:30.800Z,58.79
2023-03-03T12:21:18.338Z,58.75
2023-03-03T12:24:06.836Z,58.79
2023-03-03T12:27:00.071Z,58.56
2023-03-03T12:29:40.176Z,58.90
2023-03-03T12:32:21.691Z,58.69
2023-03-03T12:35:02.098Z,58.40
2023-03-03T12:37:53.503Z,57.93
2023-03-03T12:40:35.656Z,58.10
2023-03-03T12:43:33.070Z,57.85
2023-03-03T12:46:39.218Z,58.02
2023-03-03T12:49:06.299Z,58.51
2023-03-03T12:52:07.303Z,58.22
2023-03-03T12:54:53.632Z,58.19
2023-03-03T12:57:59.942Z,58.51
2023-03-03T13:00:39.953Z,58.49
2023-03-03T13:03:55.681Z,58.78
2023-03-03T13:06:48.606Z,58.79
2023-03-03T13:10:02.978Z,58.63
2023-03-03T13:12:44.809Z,58.34
2023-03-03T13:15:18.372Z,58.26
2023-03-03T13:18:27.862Z,58.14
2023-03-03T13:21:10.997Z,58.04
2023-03-03T13:24:16.165Z,57.62
2023-03-03T13:26:52.740Z,57.51
2023-03-03T13:29:42.704Z,57.54
2023-03-03T13:32:17.928Z,57.62
2023-03-03T13:35:21.290Z,57.17
2023-03-03T13:37:56.550Z,57.43
2023-03-03T13:40:57.782Z,57.10
2023-03-03T13:43:27.111Z,56.84
2023-03-03T13:46:30.279Z,56.83
2023-03-03T13:49:27.499Z,56.69
2023-03-03T13:52:06.192Z,57.26
2023-03-03T13:54:48.066Z,57.25
2023-03-03T13:57:42.666Z,57.09
2023-03-03T14:00:47.707Z,57.61
2023-03-03T14:03:57.188Z,57.42
2023-03-03T14:06:28.120Z,57.04
2023-03-03T14:09:12.372Z,56.87
2023-03-03T14:12:00.346Z,57.07
2023-03-03T14:14:56.254Z,57.44
2023-03-03T14:17:36.643Z,57.25
2023-03-03T14:20:30.091Z,57.41
2023-03-03T14:23:04.979Z,56.92
2023-03-03T14:26:04.204Z,57.21
2023-03-03T14:28:51.226Z,57.14
2023-03-03T14:31:27.498Z,57.43
2023-03-03T14:34:23.868Z,56.91
2023-03-03T14:36:54.032Z,56.93
2023-03-03T14:39:34.268Z,56.95
2023-03-03T14:42:07.015Z,56.64
2023-03-03T14:44:54.057Z,56.39
2023-03-03T14:47:24.111Z,56.55
2023-03-03T14:49:53.258Z,56.58
2023-03-03T14:52:28.178Z,56.32
2023-03-03T14:55:01.314Z,56.46
2023-03-03T14:57:52.948Z,56.42
2023-03-03T15:00:19.795Z,56.38
2023-03-03T15:02:52.686Z,56.49
2023-03-03T15:05:31.594Z,56.00
2023-03-03T15:08:11.417Z,56.48
2023-03-03T15:10:41.809Z,56.01
2023-03-03T15:13:34.217Z,56.23
2023-03-03T15:16:22.622Z,56.25
2023-03-03T15:19:00.506Z,56.37
2023-03-03T15:21:34.398Z,56.16
2023-03-03T15:24:30.704Z,56.45
2023-03-03T15:27:08.712Z,56.11
2023-03-03T15:30:15.825Z,56.01
2023-03-03T15:33:06.939Z,56.09
2023-03-03T15:36:30.984Z,56.47
2023-03-03T15:39:41.666Z,56.48
2023-03-03T15:42:24.298Z,56.27
2023-03-03T15:45:13.864Z,56.29
2023-03-03T15:48:26.895Z,56.36
2023-03-03T15:51:31.417Z,56.23
2023-03-03T15:54:25.472Z,56.41
2023-03-03T15:57:16.524Z,56.65
2023-03-03T16:00:32.766Z,56.52
2023-03-03T16:03:10.632Z,56.74
2023-03-03T16:06:09.000Z,56.88
2023-03-03T16:09:07.094Z,56.90
2023-03-03T16:11:50.035Z,56.98
2023-03-03T16:15:01.599Z,57.12
2023-03-03T16:18:17.066Z,57.29
2023-03-03T16:20:49.408Z,57.67
2023-03-03T16:23:37.055Z,57.43
2023-03-03T16:26:36.974Z,57.42
2023-03-03T16:29:09.352Z,57.40
2023-03-03T16:31:43.884Z,57.17
2023-03-03T16:34:21.956Z,57.27
2023-03-03T16:37:31.167Z,57.17
2023-03-03T16:40:17.253Z,57.33
2023-03-03T16:42:44.601Z,57.32
2023-03-03T16:45:40.371Z,57.54
2023-03-03T16:48:14.236Z,57.21
2023-03-03T16:51:14.496Z,57.50
2023-03-03T16:53:57.372Z,57.35
2023-03-03T16:56:35.239Z,57.40
2023-03-03T16:59:33.801Z,57.61
2023-03-03T17:02:20.862Z,57.49
2023-03-03T17:04:59.113Z,57.43
2023-03-03T17:08:06.529Z,57.76
2023-03-03T17:10:42.439Z,57.78
2023-03-03T17:13:15.698Z,58.15
2023-03-03T17:16:08.354Z,58.09
2023-03-03T17:18:56.922Z,58.07
2023-03-03T17:22:03.380Z,58.27
2023-03-03T17:25:00.830Z,58.26
2023-03-03T17:28:04.868Z,58.24
2023-03-03T17:31:00.608Z,58.31
2023-03-03T17:33:55.641Z,58.25
2023-03-03T17:36:54.270Z,58.23
2023-03-03T17:40:17.516Z,58.26
2023-03-03T17:43:33.767Z,58.51
2023-03-03T17:46:05.021Z,58.61
2023-03-03T17:49:06.766Z,58.39
2023-03-03T17:51:51.851Z,58.35
2023-03-03T17:54:42.508Z,58.45
2023-03-03T17:57:45.379Z,58.47
2023-03-03T18:01:03.874Z,58.54
2023-03-03T18:04:31.423Z,58.59
2023-03-03T18:07:35.791Z,58.67
2023-03-03T18:10:27.331Z,58.56
2023-03-03T18:13:21.495Z,58.67
2023-03-03T18:16:12.352Z,58.52
2023-03-03T18:19:07.196Z,59.05
2023-03-03T18:21:54.304Z,58.64
2023-03-03T18:24:39.009Z,58.82
2023-03-03T18:27:29.922Z,58.88
2023-03-03T18:30:35.222Z,58.88
2023-03-03T18:33:13.912Z,58.84
2023-03-03T18:35:46.234Z,58.77
2023-03-03T18:38:16.061Z,58.74
2023-03-03T18:40:58.654Z,58.87
2023-03-03T18:43:43.632Z,59.07
2023-03-03T18:46:22.670Z,58.88
2023-03-03T18:49:04.713Z,58.81
2023-03-03T18:51:34.664Z,58.99
2023-03-03T18:54:12.959Z,59.09
2023-03-03T18:56:57.837Z,58.92
2023-03-03T18:59:30.780Z,59.01
2023-03-03T19:02:12.832Z,58.86
2023-03-03T19:04:56.668Z,58.86
2023-03-03T19:07:41.970Z,59.11
2023-03-03T19:10:50.468Z,59.01
2023-03-03T19:13:32.445Z,58.92
2023-03-03T19:16:05.104Z,59.23
2023-03-03T19:18:42.464Z,58.98
2023-03-03T19:21:12.436Z,58.96
2023-03-03T19:24:04.371Z,58.89
2023-03-03T19:26:50.196Z,59.10
2023-03-03T19:29:45.610Z,59.14
2023-03-03T19:32:34.283Z,59.05
2023-03-03T19:35:41.912Z,59.38
2023-03-03T19:38:23.092Z,59.26
2023-03-03T19:41:23.530Z,59.37
2023-03-03T19:44:57.954Z,59.33
2023-03-03T19:47:48.593Z,59.34
2023-03-03T19:50:33.060Z,59.57
2023-03-03T19:53:04.106Z,59.72
2023-03-03T19:56:05.899Z,59.80
2023-03-03T19:59:31.524Z,59.70
2023-03-03T20:02:27.142Z,59.46
2023-03-03T20:05:19.461Z,59.77
2023-03-03T20:07:58.802Z,59.63
2023-03-03T20:10:43.841Z,59.76
2023-03-03T20:13:55.213Z,59.87
2023-03-03T20:16:42.757Z,59.69
2023-03-03T20:19:43.135Z,59.51
2023-03-03T20:22:34.188Z,59.80
2023-03-03T20:25:22.586Z,59.74
2023-03-03T20:28:24.895Z,59.64
2023-03-03T20:31:20.687Z,59.71
2023-03-03T20:34:23.746Z,59.70
2023-03-03T20:37:21.431Z,59.90
2023-03-03T20:40:33.392Z,59.63
2023-03-03T20:43:42.681Z,59.94
2023-03-03T20:46:22.942Z,59.78
2023-03-03T20:49:14.631Z,59.73
2023-03-03T20:51:59.017Z,59.63
2023-03-03T20:54:59.767Z,59.65
2023-03-03T20:58:05.382Z,59.87
2023-03-03T21:00:38.901Z,59.82
2023-03-03T21:03:34.256Z,59.82
2023-03-03T21:06:17.801Z,59.86
2023-03-03T21:08:53.818Z,59.60
2023-03-03T21:11:32.018Z,59.62
2023-03-03T21:14:13.511Z,59.52
2023-03-03T21:16:42.242Z,59.55
2023-03-03T21:19:23.672Z,59.54
2023-03-03T21:21:51.538Z,59.51
2023-03-03T21:24:21.650Z,59.53
2023-03-03T21:26:54.192Z,59.17
2023-03-03T21:29:22.138Z,59.34
2023-03-03T21:31:52.498Z,59.24
2023-03-03T21:34:35.534Z,59.01
2023-03-03T21:37:05.917Z,59.10
2023-03-03T21:39:37.576Z,59.30
2023-03-03T21:42:11.329Z,59.35
2023-03-03T21:44:51.906Z,59.45
2023-03-03T21:47:22.101Z,59.49
2023-03-03T21:49:51.582Z,59.33
2023-03-03T21:52:21.092Z,59.23
2023-03-03T21:54:51.006Z,59.34
2023-03-03T21:57:18.672Z,59.45
2023-03-03T21:59:45.502Z,59.56
2023-03-03T22:02:12.436Z,59.31
2023-03-03T22:04:39.363Z,59.17
2023-03-03T22:07:06.671Z,59.36
2023-03-03T22:09:34.092Z,59.25
2023-03-03T22:12:00.933Z,59.33
2023-03-03T22:14:27.933Z,59.13
2023-03-03T22:16:54.755Z,59.20
2023-03-03T22:19:21.811Z,59.49
2023-03-03T22:21:49.620Z,59.41
2023-03-03T22:24:16.923Z,59.52
2023-03-03T22:26:43.697Z,59.13
2023-03-03T22:29:10.461Z,59.11
2023-03-03T22:31:37.485Z,59.17
2023-03-03T22:34:07.544Z,59.17
2023-03-03T22:36:34.389Z,59.19
2023-03-03T22:39:01.855Z,59.27
2023-03-03T22:41:28.643Z,59.31
2023-03-03T22:43:55.409Z,59.13
2023-03-03T22:46:22.241Z,59.51
2023-03-03T22:48:49.031Z,58.99
2023-03-03T22:51:15.841Z,59.18
2023-03-03T22:53:42.627Z,59.38
2023-03-03T22:56:09.475Z,59.45
2023-03-03T22:58:36.278Z,59.35
2023-03-03T23:01:04.708Z,59.42
2023-03-03T23:03:32.658Z,59.54
2023-03-03T23:05:59.666Z,59.45
2023-03-03T23:08:27.502Z,59.69
2023-03-03T23:10:54.310Z,60.03
2023-03-03T23:13:21.181Z,59.75
2023-03-03T23:15:47.948Z,59.62
2023-03-03T23:18:14.729Z,59.59
2023-03-03T23:20:45.654Z,59.51
2023-03-03T23:23:12.585Z,59.87
2023-03-03T23:25:39.494Z,59.97
2023-03-03T23:28:06.469Z,59.64
2023-03-03T23:30:33.237Z,59.79
2023-03-03T23:33:00.098Z,59.72
2023-03-03T23:35:26.894Z,59.40
2023-03-03T23:37:53.709Z,59.76
2023-03-03T23:40:20.534Z,59.76
2023-03-03T23:42:47.405Z,59.81
2023-03-03T23:45:14.564Z,59.60
2023-03-03T23:47:41.983Z,59.94
2023-03-03T23:50:11.101Z,59.57
2023-03-03T23:52:38.258Z,59.64
2023-03-03T23:55:06.175Z,59.79
2023-03-03T23:57:33.039Z,59.79
2023-03-03T23:59:59.829Z,59.83
